Time;durP1;ratioP1;P1;durP2;ratioP2;P2;SDS_P1;SDS_P2;PMS_P1;PMS_P2;Temp;Humidity;BMP_temperature;BMP_pressure;BME280_temperature;BME280_humidity;BME280_pressure;Samples;Min_cycle;Max_cycle;Signal;HPM_P1;HPM_P2
2023/10/29 00:01:41;;;;;;;8.37;3.00;;;10.50;99.90;;;;;;5024589;28;20246;-73
2023/10/29 00:04:07;;;;;;;6.40;2.57;;;10.40;99.90;;;;;;5025847;28;20240;-72
2023/10/29 00:06:33;;;;;;;4.93;2.57;;;10.40;99.90;;;;;;5027150;28;20220;-72
2023/10/29 00:08:58;;;;;;;6.40;2.70;;;10.50;99.90;;;;;;5027578;28;20562;-73
2023/10/29 00:11:24;;;;;;;6.50;2.97;;;10.40;99.90;;;;;;5026905;28;20184;-73
2023/10/29 00:13:49;;;;;;;3.30;2.63;;;10.40;99.90;;;;;;5029131;28;20231;-72
2023/10/29 00:16:15;;;;;;;3.90;2.40;;;10.40;99.90;;;;;;5026946;28;20220;-72
2023/10/29 00:18:41;;;;;;;8.87;2.67;;;10.40;99.90;;;;;;5030353;28;20224;-73
2023/10/29 00:21:07;;;;;;;3.30;2.53;;;10.40;99.90;;;;;;5029778;28;20269;-72
2023/10/29 00:23:33;;;;;;;4.40;2.60;;;10.40;99.90;;;;;;5028851;28;20181;-73
2023/10/29 00:25:59;;;;;;;7.60;2.53;;;10.40;99.90;;;;;;5029940;28;20220;-73
2023/10/29 00:28:25;;;;;;;3.93;2.50;;;10.40;99.90;;;;;;5028659;28;20679;-73
2023/10/29 00:30:53;;;;;;;3.70;2.30;;;10.30;99.90;;;;;;5028007;28;20216;-72
2023/10/29 00:33:19;;;;;;;3.77;1.80;;;10.40;99.90;;;;;;5030671;28;20220;-73
2023/10/29 00:35:44;;;;;;;4.33;2.13;;;10.40;99.90;;;;;;5025948;28;20219;-73
2023/10/29 00:38:10;;;;;;;3.40;1.67;;;10.30;99.90;;;;;;5026868;28;20941;-73
2023/10/29 00:40:39;;;;;;;4.87;1.90;;;10.30;99.90;;;;;;5025765;28;20307;-73
2023/10/29 00:43:05;;;;;;;2.70;1.60;;;10.30;99.90;;;;;;5027536;28;20235;-74
2023/10/29 00:45:31;;;;;;;2.23;1.50;;;10.30;99.90;;;;;;5024988;28;20228;-73
2023/10/29 00:47:58;;;;;;;2.20;1.40;;;10.30;99.90;;;;;;5028392;28;20198;-71
2023/10/29 00:50:24;;;;;;;2.03;1.20;;;10.30;99.90;;;;;;5030795;28;20609;-73
2023/10/29 00:52:50;;;;;;;2.30;1.40;;;10.30;99.90;;;;;;5027594;28;20646;-73
2023/10/29 00:55:17;;;;;;;3.37;1.50;;;10.30;99.90;;;;;;5021003;28;20219;-73
2023/10/29 00:57:42;;;;;;;5.00;1.70;;;10.30;99.90;;;;;;5024358;28;20232;-73
2023/10/29 01:00:09;;;;;;;2.20;1.63;;;10.30;99.90;;;;;;5025794;28;20726;-73
2023/10/29 01:02:35;;;;;;;6.07;2.00;;;10.20;99.90;;;;;;5028741;28;20177;-73
2023/10/29 01:05:01;;;;;;;2.17;1.33;;;10.30;99.90;;;;;;5027953;28;20270;-73
2023/10/29 01:07:27;;;;;;;3.57;1.47;;;10.30;99.90;;;;;;5029474;28;20586;-73
2023/10/29 01:09:53;;;;;;;1.60;1.33;;;10.20;99.90;;;;;;5029336;28;20223;-73
2023/10/29 01:12:20;;;;;;;2.50;1.23;;;10.20;99.90;;;;;;5030174;28;20224;-73
2023/10/29 01:14:45;;;;;;;5.27;1.53;;;10.20;99.90;;;;;;5030014;28;20180;-73
2023/10/29 01:17:11;;;;;;;3.93;1.40;;;10.20;99.90;;;;;;5021097;28;20216;-73
2023/10/29 01:19:37;;;;;;;3.93;2.37;;;10.20;99.90;;;;;;5028073;28;20274;-72
2023/10/29 01:22:03;;;;;;;5.10;1.80;;;10.20;99.90;;;;;;5028669;28;20208;-73
2023/10/29 01:24:28;;;;;;;4.83;1.70;;;10.20;99.90;;;;;;5028052;28;20204;-73
2023/10/29 01:26:54;;;;;;;4.27;1.33;;;10.20;99.90;;;;;;5029213;28;20204;-73
2023/10/29 01:29:20;;;;;;;3.80;1.70;;;10.20;99.90;;;;;;5028244;28;20181;-73
2023/10/29 01:31:49;;;;;;;3.00;1.10;;;10.20;99.90;;;;;;5028667;28;20262;-73
2023/10/29 01:34:15;;;;;;;4.37;1.20;;;10.20;99.90;;;;;;5020090;28;20258;-71
2023/10/29 01:36:40;;;;;;;1.97;1.37;;;10.20;99.90;;;;;;5027798;28;20305;-74
2023/10/29 01:39:06;;;;;;;3.23;1.40;;;10.20;99.90;;;;;;5028518;28;20236;-72
2023/10/29 01:41:32;;;;;;;1.57;1.13;;;10.20;99.90;;;;;;5029375;28;20192;-73
2023/10/29 01:43:58;;;;;;;2.50;1.53;;;10.20;99.90;;;;;;5028794;28;20698;-73
2023/10/29 01:46:24;;;;;;;4.40;1.50;;;10.20;99.90;;;;;;5029697;28;20212;-73
2023/10/29 01:48:49;;;;;;;2.57;1.30;;;10.20;99.90;;;;;;5029777;28;20950;-73
2023/10/29 01:51:15;;;;;;;1.53;1.20;;;10.20;99.90;;;;;;5028693;28;20231;-72
2023/10/29 01:53:41;;;;;;;1.87;1.13;;;10.20;99.90;;;;;;5031062;28;20226;-73
2023/10/29 01:56:07;;;;;;;5.70;1.43;;;10.20;99.90;;;;;;5028596;28;20259;-73
2023/10/29 01:58:34;;;;;;;4.07;1.30;;;10.20;99.90;;;;;;5028969;28;20290;-73
2023/10/29 02:00:59;;;;;;;2.03;1.10;;;10.20;99.90;;;;;;5032089;28;20284;-72
2023/10/29 02:03:26;;;;;;;2.73;1.20;;;10.20;99.90;;;;;;5031229;28;20292;-73
2023/10/29 02:05:52;;;;;;;1.77;1.37;;;10.30;99.90;;;;;;5032964;28;20192;-73
2023/10/29 02:08:18;;;;;;;1.83;1.50;;;10.30;99.90;;;;;;5031035;28;20196;-73
2023/10/29 02:10:44;;;;;;;4.27;1.57;;;10.30;99.90;;;;;;5031376;28;20216;-72
2023/10/29 02:13:10;;;;;;;2.30;1.23;;;10.30;99.90;;;;;;5029936;28;20227;-73
2023/10/29 02:15:35;;;;;;;3.37;1.50;;;10.20;99.90;;;;;;5031631;28;20599;-73
2023/10/29 02:18:01;;;;;;;1.80;1.20;;;10.20;99.90;;;;;;5030492;28;20184;-71
2023/10/29 02:20:27;;;;;;;2.23;1.23;;;10.30;99.90;;;;;;5032648;28;20302;-73
2023/10/29 02:22:52;;;;;;;3.17;1.50;;;10.20;99.90;;;;;;5030436;28;20680;-73
2023/10/29 02:25:18;;;;;;;1.60;1.10;;;10.30;99.90;;;;;;5032647;28;20296;-73
2023/10/29 02:27:44;;;;;;;5.97;1.50;;;10.30;99.90;;;;;;5032816;28;20206;-73
2023/10/29 02:30:10;;;;;;;2.70;1.43;;;10.20;99.90;;;;;;5032318;28;20208;-73
2023/10/29 02:32:36;;;;;;;4.20;1.20;;;10.30;99.90;;;;;;5028287;28;20679;-73
2023/10/29 02:35:03;;;;;;;2.17;1.17;;;10.30;99.90;;;;;;5031733;28;20211;-71
2023/10/29 02:37:28;;;;;;;5.03;1.37;;;10.30;99.90;;;;;;5030022;28;20719;-74
2023/10/29 02:39:54;;;;;;;1.93;1.30;;;10.30;99.90;;;;;;5037075;23;20217;-77
2023/10/29 02:42:20;;;;;;;4.67;1.30;;;10.30;99.90;;;;;;5011922;28;20228;-79
2023/10/29 02:44:45;;;;;;;2.63;1.23;;;10.30;99.90;;;;;;5010491;28;20178;-78
2023/10/29 02:47:11;;;;;;;3.77;1.20;;;10.30;99.90;;;;;;5004352;28;20177;-79
2023/10/29 02:49:37;;;;;;;4.10;1.70;;;10.30;99.90;;;;;;5011950;28;20300;-79
2023/10/29 02:52:03;;;;;;;3.60;1.30;;;10.30;99.90;;;;;;5001350;28;20268;-78
2023/10/29 02:54:28;;;;;;;2.77;1.30;;;10.30;99.90;;;;;;5001114;28;20715;-79
2023/10/29 02:56:54;;;;;;;3.43;1.27;;;10.20;99.90;;;;;;5005753;28;20181;-78
2023/10/29 02:59:20;;;;;;;2.40;1.23;;;10.20;99.90;;;;;;4993185;28;20287;-78
2023/10/29 03:01:46;;;;;;;4.50;1.40;;;10.20;99.90;;;;;;5000383;28;20222;-79
2023/10/29 03:04:12;;;;;;;2.47;1.37;;;10.20;99.90;;;;;;4997391;28;20264;-79
2023/10/29 03:06:39;;;;;;;2.17;1.33;;;10.30;99.90;;;;;;5002318;28;20712;-79
2023/10/29 03:09:05;;;;;;;1.70;1.20;;;10.30;99.90;;;;;;4995384;28;20298;-78
2023/10/29 03:11:30;;;;;;;1.70;1.30;;;10.30;99.90;;;;;;4995651;28;20623;-79
2023/10/29 03:13:57;;;;;;;4.70;1.50;;;10.30;99.90;;;;;;5000635;28;20311;-78
2023/10/29 03:16:23;;;;;;;3.00;1.27;;;10.30;99.90;;;;;;5001104;28;20217;-79
2023/10/29 03:18:48;;;;;;;2.73;1.40;;;10.30;99.90;;;;;;5001707;28;20217;-79
2023/10/29 03:21:18;;;;;;;2.97;1.77;;;10.30;99.90;;;;;;4998813;28;20244;-79
2023/10/29 03:23:43;;;;;;;5.53;1.20;;;10.30;99.90;;;;;;5003086;28;20181;-78
2023/10/29 03:26:09;;;;;;;2.67;1.53;;;10.30;99.90;;;;;;4999447;28;20185;-79
2023/10/29 03:28:39;;;;;;;4.43;1.53;;;10.30;99.90;;;;;;5003688;28;20266;-78
2023/10/29 03:31:16;;;;;;;2.00;1.40;;;10.30;99.90;;;;;;4992243;28;20206;-79
2023/10/29 03:33:44;;;;;;;3.20;1.60;;;10.30;99.90;;;;;;4999942;28;20229;-78
2023/10/29 03:36:09;;;;;;;2.07;1.70;;;10.30;99.90;;;;;;4997440;28;20231;-78
2023/10/29 03:38:35;;;;;;;4.07;1.60;;;10.30;99.90;;;;;;4996082;28;20289;-79
2023/10/29 03:41:01;;;;;;;2.90;1.20;;;10.30;99.90;;;;;;5000904;28;20216;-79
2023/10/29 03:43:26;;;;;;;1.83;1.43;;;10.30;99.90;;;;;;4999672;28;20217;-78
2023/10/29 03:45:52;;;;;;;2.30;1.40;;;10.30;99.90;;;;;;4991882;28;20210;-79
2023/10/29 03:48:17;;;;;;;3.50;1.20;;;10.30;99.90;;;;;;4994048;28;20292;-79
2023/10/29 03:50:43;;;;;;;3.57;1.40;;;10.30;99.90;;;;;;5005365;28;20244;-79
2023/10/29 03:53:09;;;;;;;2.60;1.40;;;10.30;99.90;;;;;;4999684;28;20248;-78
2023/10/29 03:55:38;;;;;;;4.40;1.53;;;10.30;99.90;;;;;;5000384;28;20260;-78
2023/10/29 03:58:04;;;;;;;5.07;2.50;;;10.30;99.90;;;;;;4998834;28;20580;-78
2023/10/29 04:00:30;;;;;;;2.03;1.37;;;10.30;99.90;;;;;;5001442;28;20228;-79
2023/10/29 04:02:56;;;;;;;3.10;1.87;;;10.30;99.90;;;;;;5003144;28;20256;-78
2023/10/29 04:05:22;;;;;;;5.07;1.80;;;10.30;99.90;;;;;;4999738;28;20179;-78
2023/10/29 04:07:49;;;;;;;2.30;1.50;;;10.30;99.90;;;;;;5004739;28;20290;-78
2023/10/29 04:10:15;;;;;;;2.33;1.70;;;10.30;99.90;;;;;;4999123;28;20217;-78
2023/10/29 04:12:41;;;;;;;5.47;1.60;;;10.40;99.90;;;;;;4986743;28;20221;-78
2023/10/29 04:15:07;;;;;;;2.63;1.57;;;10.30;99.90;;;;;;4997402;28;20208;-78
2023/10/29 04:17:33;;;;;;;6.93;1.80;;;10.40;99.90;;;;;;4996269;28;20173;-78
2023/10/29 04:19:59;;;;;;;5.70;1.87;;;10.40;99.90;;;;;;5010830;28;20662;-78
2023/10/29 04:22:24;;;;;;;3.73;1.97;;;10.40;99.90;;;;;;4998242;28;20209;-77
2023/10/29 04:24:51;;;;;;;2.87;1.60;;;10.40;99.90;;;;;;5002118;28;20208;-77
2023/10/29 04:27:16;;;;;;;3.83;1.53;;;10.40;99.90;;;;;;5000018;28;20229;-78
2023/10/29 04:29:42;;;;;;;1.77;1.37;;;10.40;99.90;;;;;;5002470;28;20216;-78
2023/10/29 04:32:08;;;;;;;5.67;1.40;;;10.40;99.90;;;;;;5000858;28;20224;-78
2023/10/29 04:34:34;;;;;;;4.67;2.10;;;10.40;99.90;;;;;;4990126;28;20209;-80
2023/10/29 04:37:00;;;;;;;5.20;1.73;;;10.40;99.90;;;;;;4993637;28;20210;-76
2023/10/29 04:39:25;;;;;;;2.33;1.60;;;10.40;99.90;;;;;;4996638;28;20685;-77
2023/10/29 04:41:51;;;;;;;3.80;2.07;;;10.40;99.90;;;;;;5000274;28;20181;-78
2023/10/29 04:44:17;;;;;;;2.33;1.60;;;10.40;99.90;;;;;;4998552;28;20241;-77
2023/10/29 04:46:43;;;;;;;1.77;1.43;;;10.50;99.90;;;;;;4997416;28;20216;-77
2023/10/29 04:49:08;;;;;;;3.20;1.50;;;10.40;99.90;;;;;;5001234;28;20205;-78
2023/10/29 04:51:34;;;;;;;2.20;1.73;;;10.50;99.90;;;;;;4997636;28;20209;-77
2023/10/29 04:54:00;;;;;;;4.17;2.00;;;10.50;99.90;;;;;;4998793;28;20216;-79
2023/10/29 04:56:26;;;;;;;4.53;1.87;;;10.50;99.90;;;;;;4999992;28;20177;-78
2023/10/29 04:58:52;;;;;;;3.10;1.60;;;10.50;99.90;;;;;;4997935;28;20926;-75
2023/10/29 05:01:20;;;;;;;3.87;1.50;;;10.50;99.90;;;;;;4992207;28;20210;-77
2023/10/29 05:03:46;;;;;;;4.70;2.63;;;10.50;99.90;;;;;;4997173;28;20213;-77
2023/10/29 05:06:22;;;;;;;4.57;1.90;;;10.50;99.90;;;;;;4997143;28;20280;-78
2023/10/29 05:08:49;;;;;;;3.80;1.80;;;10.50;99.90;;;;;;5000006;28;20204;-77
2023/10/29 05:11:15;;;;;;;4.63;1.87;;;10.50;99.90;;;;;;4997630;28;20674;-77
2023/10/29 05:13:44;;;;;;;2.77;1.20;;;10.50;99.90;;;;;;4999760;28;20626;-78
2023/10/29 05:16:10;;;;;;;6.57;1.80;;;10.50;99.90;;;;;;4999937;28;20201;-78
2023/10/29 05:18:37;;;;;;;3.23;1.27;;;10.60;99.90;;;;;;4998943;28;20304;-79
2023/10/29 05:21:03;;;;;;;5.07;1.93;;;10.60;99.90;;;;;;4992819;28;20190;-78
2023/10/29 05:23:29;;;;;;;3.07;1.60;;;10.60;99.90;;;;;;4992187;28;20181;-77
2023/10/29 05:25:54;;;;;;;3.90;1.80;;;10.60;99.90;;;;;;4995026;28;20271;-77
2023/10/29 05:28:21;;;;;;;4.90;1.40;;;10.60;99.90;;;;;;4998355;28;20742;-78
2023/10/29 05:30:47;;;;;;;2.63;1.50;;;10.60;99.90;;;;;;4999855;28;20726;-78
2023/10/29 05:33:13;;;;;;;6.67;1.77;;;10.70;99.90;;;;;;5003076;28;20307;-78
2023/10/29 05:35:38;;;;;;;3.77;1.50;;;10.70;99.90;;;;;;4992858;28;20186;-77
2023/10/29 05:38:04;;;;;;;2.17;1.53;;;10.70;99.90;;;;;;5001261;28;20223;-77
2023/10/29 05:40:30;;;;;;;2.60;1.50;;;10.70;99.90;;;;;;4998499;28;20225;-77
2023/10/29 05:42:56;;;;;;;7.67;2.10;;;10.80;99.90;;;;;;5019643;28;20200;-77
2023/10/29 05:45:21;;;;;;;1.50;1.40;;;10.80;99.90;;;;;;5001211;28;20287;-77
2023/10/29 05:47:47;;;;;;;5.50;2.13;;;10.80;99.90;;;;;;5004414;28;20249;-77
2023/10/29 05:50:12;;;;;;;4.83;1.67;;;10.80;99.90;;;;;;5005961;28;20279;-78
2023/10/29 05:52:38;;;;;;;2.30;1.53;;;10.80;99.90;;;;;;5003813;28;20218;-77
2023/10/29 05:55:04;;;;;;;3.10;1.50;;;10.80;99.90;;;;;;5004075;28;20201;-77
2023/10/29 05:57:30;;;;;;;3.10;1.53;;;10.80;99.90;;;;;;5003049;28;20210;-78
2023/10/29 05:59:56;;;;;;;3.53;1.70;;;10.90;99.90;;;;;;4992714;28;20716;-76
2023/10/29 06:02:21;;;;;;;2.80;1.47;;;10.80;99.90;;;;;;4997037;28;20185;-76
2023/10/29 06:04:47;;;;;;;2.13;1.57;;;10.90;99.90;;;;;;5013119;28;20696;-78
2023/10/29 06:07:13;;;;;;;6.50;1.70;;;10.90;99.90;;;;;;5004424;28;20209;-79
2023/10/29 06:09:39;;;;;;;2.73;1.47;;;10.90;99.90;;;;;;5001579;28;20225;-78
2023/10/29 06:12:06;;;;;;;3.67;1.70;;;10.90;99.90;;;;;;5003862;28;20217;-77
2023/10/29 06:14:32;;;;;;;6.13;1.40;;;10.90;99.90;;;;;;5001748;28;20640;-78
2023/10/29 06:16:58;;;;;;;2.97;1.60;;;10.90;99.90;;;;;;5003066;28;20205;-75
2023/10/29 06:19:24;;;;;;;1.27;1.10;;;10.90;99.90;;;;;;5001369;28;20255;-76
2023/10/29 06:21:50;;;;;;;3.77;1.30;;;10.90;99.90;;;;;;5001091;28;20256;-77
2023/10/29 06:24:16;;;;;;;3.50;1.03;;;10.90;99.90;;;;;;4993976;28;20300;-77
2023/10/29 06:26:42;;;;;;;3.70;1.30;;;10.90;99.90;;;;;;5002565;28;20298;-77
2023/10/29 06:29:08;;;;;;;4.40;1.57;;;11.00;99.90;;;;;;5001727;28;20209;-77
2023/10/29 06:31:35;;;;;;;5.27;1.47;;;11.00;99.90;;;;;;5008151;28;20269;-77
2023/10/29 06:34:01;;;;;;;1.80;1.17;;;11.00;99.90;;;;;;5001514;28;20312;-78
2023/10/29 06:36:28;;;;;;;2.30;1.17;;;11.00;99.90;;;;;;4995220;28;20222;-78
2023/10/29 06:38:55;;;;;;;3.17;1.10;;;11.00;99.90;;;;;;5001172;28;20604;-78
2023/10/29 06:41:20;;;;;;;3.17;1.00;;;11.00;99.90;;;;;;5013298;28;20185;-77
2023/10/29 06:43:46;;;;;;;2.30;1.10;;;11.00;99.90;;;;;;5001267;28;20202;-79
2023/10/29 06:46:12;;;;;;;2.57;1.30;;;11.10;99.90;;;;;;5003702;28;20220;-79
2023/10/29 06:48:41;;;;;;;3.13;1.50;;;11.10;99.90;;;;;;5001080;28;20356;-78
2023/10/29 06:51:09;;;;;;;2.60;1.47;;;11.10;99.90;;;;;;4989159;28;20237;-78
2023/10/29 06:53:35;;;;;;;1.60;1.13;;;11.10;99.90;;;;;;4996733;28;20280;-78
2023/10/29 06:56:02;;;;;;;2.27;1.20;;;11.10;99.90;;;;;;5000455;28;20340;-79
2023/10/29 06:58:28;;;;;;;2.50;1.20;;;11.10;99.90;;;;;;5001797;28;20218;-77
2023/10/29 07:00:53;;;;;;;2.17;1.37;;;11.10;99.90;;;;;;5002357;28;20606;-79
2023/10/29 07:03:19;;;;;;;1.67;1.20;;;11.10;99.90;;;;;;5000848;28;20292;-78
2023/10/29 07:05:44;;;;;;;1.50;0.90;;;11.10;99.90;;;;;;4989342;28;20193;-78
2023/10/29 07:08:10;;;;;;;4.13;1.20;;;11.10;99.90;;;;;;4995952;28;20256;-78
2023/10/29 07:10:36;;;;;;;4.60;0.90;;;11.10;99.90;;;;;;5000605;28;20210;-78
2023/10/29 07:13:02;;;;;;;3.17;1.17;;;11.20;99.90;;;;;;4997893;28;20217;-79
2023/10/29 07:15:28;;;;;;;3.23;1.10;;;11.10;99.90;;;;;;5003064;28;20311;-78
2023/10/29 07:17:53;;;;;;;4.03;1.23;;;11.10;99.90;;;;;;4996207;28;20178;-78
2023/10/29 07:20:19;;;;;;;3.90;1.10;;;11.20;99.90;;;;;;5004643;28;20196;-78
2023/10/29 07:22:44;;;;;;;1.67;1.30;;;11.20;99.90;;;;;;5001744;28;20213;-78
2023/10/29 07:25:10;;;;;;;1.80;1.40;;;11.20;99.90;;;;;;5002117;28;20292;-78
2023/10/29 07:27:36;;;;;;;4.67;1.50;;;11.30;99.90;;;;;;4999841;28;20337;-78
2023/10/29 07:30:02;;;;;;;2.60;1.40;;;11.30;99.90;;;;;;4997417;28;20284;-75
2023/10/29 07:32:28;;;;;;;2.23;1.33;;;11.30;99.90;;;;;;4987416;28;20742;-79
2023/10/29 07:34:54;;;;;;;2.40;1.50;;;11.30;99.90;;;;;;5001092;28;20300;-78
2023/10/29 07:37:20;;;;;;;3.37;1.03;;;11.30;99.90;;;;;;4999387;28;20291;-78
2023/10/29 07:39:45;;;;;;;3.00;1.27;;;11.30;99.90;;;;;;4999074;28;20226;-78
2023/10/29 07:42:11;;;;;;;2.97;1.43;;;11.30;99.90;;;;;;5001686;28;20698;-79
2023/10/29 07:44:36;;;;;;;2.53;1.07;;;11.30;99.90;;;;;;4999835;28;20630;-78
2023/10/29 07:47:08;;;;;;;6.80;1.40;;;11.30;99.90;;;;;;5003656;28;20216;-77
2023/10/29 07:49:37;;;;;;;2.30;1.33;;;11.30;99.90;;;;;;4999723;28;20216;-76
2023/10/29 07:52:04;;;;;;;2.83;1.23;;;11.30;99.90;;;;;;4986833;28;21768;-77
2023/10/29 07:54:30;;;;;;;2.23;1.50;;;11.30;99.90;;;;;;4996772;28;20252;-77
2023/10/29 07:56:56;;;;;;;3.50;1.53;;;11.30;99.90;;;;;;4998676;28;20178;-77
2023/10/29 07:59:21;;;;;;;2.83;1.50;;;11.30;99.90;;;;;;5001877;28;20204;-75
2023/10/29 08:01:47;;;;;;;3.77;1.27;;;11.30;99.90;;;;;;4999527;28;20217;-78
2023/10/29 08:04:12;;;;;;;2.47;1.13;;;11.30;99.90;;;;;;4999553;28;20694;-77
2023/10/29 08:06:38;;;;;;;3.37;1.30;;;11.30;99.90;;;;;;4999676;28;20217;-77
2023/10/29 08:09:04;;;;;;;5.13;1.50;;;11.30;99.90;;;;;;5002245;28;20221;-78
2023/10/29 08:11:30;;;;;;;2.90;1.43;;;11.30;99.90;;;;;;4991018;28;20189;-77
2023/10/29 08:13:56;;;;;;;1.90;1.20;;;11.30;99.90;;;;;;4993641;28;20217;-78
2023/10/29 08:16:22;;;;;;;6.43;1.50;;;11.30;99.90;;;;;;4997963;28;20212;-77
2023/10/29 08:18:48;;;;;;;3.80;1.10;;;11.30;99.90;;;;;;4998766;28;20884;-78
2023/10/29 08:21:15;;;;;;;3.00;1.27;;;11.40;99.90;;;;;;4999054;28;20258;-78
2023/10/29 08:23:40;;;;;;;2.77;1.33;;;11.40;99.90;;;;;;4997941;28;20193;-76
2023/10/29 08:26:06;;;;;;;1.90;1.30;;;11.40;99.90;;;;;;4998051;28;20409;-78
2023/10/29 08:28:32;;;;;;;4.27;1.57;;;11.40;99.90;;;;;;5003719;28;20305;-77
2023/10/29 08:30:57;;;;;;;2.93;1.13;;;11.40;99.90;;;;;;4999460;28;20700;-75
2023/10/29 08:33:23;;;;;;;2.53;1.30;;;11.40;99.90;;;;;;5018170;28;20217;-78
2023/10/29 08:35:49;;;;;;;2.83;1.10;;;11.50;99.90;;;;;;4990452;28;20276;-78
2023/10/29 08:38:14;;;;;;;1.87;1.13;;;11.50;99.90;;;;;;4998497;28;20905;-78
2023/10/29 08:40:40;;;;;;;2.03;1.17;;;11.50;99.90;;;;;;4998887;28;20220;-78
2023/10/29 08:43:06;;;;;;;5.33;2.10;;;11.50;99.90;;;;;;4999800;28;20209;-78
2023/10/29 08:45:33;;;;;;;1.57;1.20;;;11.50;99.90;;;;;;5000346;28;21041;-78
2023/10/29 08:47:59;;;;;;;4.27;1.43;;;11.60;99.90;;;;;;4998176;28;20189;-78
2023/10/29 08:50:25;;;;;;;4.63;1.27;;;11.60;99.90;;;;;;5002157;28;20197;-78
2023/10/29 08:52:50;;;;;;;3.80;1.50;;;11.60;99.90;;;;;;4998450;28;20279;-78
2023/10/29 08:55:16;;;;;;;1.87;1.40;;;11.60;99.90;;;;;;4997034;28;20258;-78
2023/10/29 08:57:42;;;;;;;1.30;1.20;;;11.70;99.90;;;;;;4998528;28;20220;-78
2023/10/29 09:00:08;;;;;;;2.00;1.03;;;11.70;99.90;;;;;;4993437;28;20248;-78
2023/10/29 09:02:34;;;;;;;2.37;1.10;;;11.80;99.90;;;;;;4997074;28;20817;-78
2023/10/29 09:05:00;;;;;;;2.00;1.10;;;11.80;99.90;;;;;;4996698;28;20224;-78
2023/10/29 09:07:27;;;;;;;2.93;1.03;;;11.90;99.90;;;;;;5015570;28;20212;-78
2023/10/29 09:09:53;;;;;;;1.73;1.10;;;11.90;99.90;;;;;;4998525;28;20312;-79
2023/10/29 09:12:20;;;;;;;5.13;1.30;;;12.00;99.90;;;;;;5000767;28;20331;-79
2023/10/29 09:14:46;;;;;;;2.53;1.20;;;12.10;99.90;;;;;;4999482;28;20286;-78
2023/10/29 09:17:11;;;;;;;1.03;0.80;;;12.10;99.90;;;;;;5001663;28;20178;-79
2023/10/29 09:19:37;;;;;;;3.37;1.07;;;12.20;99.90;;;;;;5001042;28;20227;-78
2023/10/29 09:22:02;;;;;;;1.83;1.00;;;12.20;99.90;;;;;;4996926;28;20221;-78
2023/10/29 09:24:28;;;;;;;2.58;1.10;;;12.20;99.90;;;;;;4996958;28;20271;-76
2023/10/29 09:26:54;;;;;;;4.97;1.25;;;12.20;99.90;;;;;;5000085;28;20181;-79
2023/10/29 09:29:20;;;;;;;2.57;1.23;;;12.30;99.90;;;;;;5000602;28;20276;-78
2023/10/29 09:31:45;;;;;;;2.87;1.10;;;12.30;99.90;;;;;;4997564;28;20208;-78
2023/10/29 09:34:11;;;;;;;1.93;1.00;;;12.40;99.90;;;;;;4997132;28;20224;-78
2023/10/29 09:36:38;;;;;;;3.65;1.33;;;12.40;99.90;;;;;;4998133;28;20213;-79
2023/10/29 09:39:04;;;;;;;2.40;1.30;;;12.50;99.90;;;;;;4996869;28;20237;-78
2023/10/29 09:41:31;;;;;;;2.45;0.90;;;12.60;99.90;;;;;;5010373;28;20189;-79
2023/10/29 09:43:59;;;;;;;1.40;1.07;;;12.60;99.90;;;;;;4996988;28;20213;-76
2023/10/29 09:46:30;;;;;;;2.45;1.05;;;12.60;99.90;;;;;;4999319;28;20271;-78
2023/10/29 09:48:57;;;;;;;2.55;1.00;;;12.70;99.90;;;;;;4994397;28;20226;-78
2023/10/29 09:51:23;;;;;;;3.60;1.10;;;12.70;99.90;;;;;;5000703;28;20213;-77
2023/10/29 09:53:51;;;;;;;2.40;1.30;;;12.80;99.90;;;;;;4997115;28;20209;-76
2023/10/29 09:56:17;;;;;;;2.70;1.00;;;12.80;99.90;;;;;;5002364;28;20174;-79
2023/10/29 09:58:43;;;;;;;4.53;1.20;;;12.70;99.90;;;;;;5000040;28;20228;-77
2023/10/29 10:01:09;;;;;;;1.92;1.00;;;12.80;99.90;;;;;;4998638;28;20224;-77
2023/10/29 10:03:35;;;;;;;4.00;0.90;;;12.80;99.90;;;;;;4992325;28;20226;-78
2023/10/29 10:06:01;;;;;;;1.80;1.40;;;12.80;99.90;;;;;;4995151;28;20277;-79
2023/10/29 10:08:29;;;;;;;1.85;0.80;;;12.80;99.90;;;;;;4998152;28;20269;-78
2023/10/29 10:10:56;;;;;;;3.17;1.00;;;12.70;99.90;;;;;;4996159;28;20760;-78
2023/10/29 10:13:36;;;;;;;1.75;0.82;;;12.80;99.90;;;;;;4999670;28;20220;-79
2023/10/29 10:16:14;;;;;;;3.03;1.13;;;12.80;99.90;;;;;;5000593;28;20271;-77
2023/10/29 10:18:57;;;;;;;1.45;0.90;;;12.80;99.90;;;;;;4997643;28;20303;-78
2023/10/29 10:21:43;;;;;;;2.15;1.20;;;12.80;99.90;;;;;;4997225;28;20213;-78
2023/10/29 10:24:10;;;;;;;4.53;1.10;;;12.80;99.90;;;;;;5002220;28;20206;-78
2023/10/29 10:26:37;;;;;;;5.65;2.22;;;12.80;99.90;;;;;;5005701;28;20267;-78
2023/10/29 10:29:04;;;;;;;3.17;1.65;;;12.80;99.90;;;;;;4999005;28;20644;-78
2023/10/29 10:31:35;;;;;;;1.45;1.05;;;12.80;99.90;;;;;;5000716;28;20715;-78
2023/10/29 10:34:16;;;;;;;2.88;0.90;;;12.90;99.90;;;;;;5003212;28;20221;-79
2023/10/29 10:36:43;;;;;;;1.27;0.90;;;12.90;99.90;;;;;;4995678;28;20282;-78
2023/10/29 10:39:11;;;;;;;4.70;2.05;;;12.90;99.90;;;;;;5003516;28;20225;-79
2023/10/29 10:41:43;;;;;;;4.07;1.00;;;13.00;99.90;;;;;;5004395;28;20567;-79
2023/10/29 10:44:19;;;;;;;5.25;1.20;;;13.00;99.90;;;;;;5004968;28;20596;-79
2023/10/29 10:46:50;;;;;;;2.45;0.80;;;13.10;99.90;;;;;;5002910;28;20217;-78
2023/10/29 10:49:17;;;;;;;1.55;0.90;;;13.00;99.90;;;;;;5006344;28;20591;-79
2023/10/29 10:51:44;;;;;;;3.20;1.00;;;13.00;99.90;;;;;;5003882;28;20846;-79
2023/10/29 10:54:10;;;;;;;0.60;0.57;;;13.10;99.90;;;;;;5001615;28;20229;-76
2023/10/29 10:56:37;;;;;;;1.20;0.98;;;13.10;99.90;;;;;;4998728;28;20193;-79
2023/10/29 10:59:05;;;;;;;1.60;1.25;;;13.10;99.90;;;;;;5004407;28;20212;-79
2023/10/29 11:01:32;;;;;;;1.65;0.88;;;13.20;99.90;;;;;;4996618;28;20212;-77
2023/10/29 11:03:59;;;;;;;1.50;0.88;;;13.20;99.90;;;;;;4999839;28;20303;-78
2023/10/29 11:06:25;;;;;;;3.05;1.83;;;13.30;99.90;;;;;;5002406;28;20212;-80
2023/10/29 11:08:53;;;;;;;2.85;0.90;;;13.30;99.90;;;;;;5002514;28;20200;-76
2023/10/29 11:11:20;;;;;;;1.15;0.80;;;13.40;99.90;;;;;;5004840;28;20177;-80
2023/10/29 11:13:46;;;;;;;4.15;1.90;;;13.50;99.90;;;;;;5003604;28;20572;-79
2023/10/29 11:16:23;;;;;;;1.88;1.00;;;13.70;99.90;;;;;;5002983;28;20219;-79
2023/10/29 11:18:49;;;;;;;1.38;0.65;;;13.80;99.90;;;;;;5002055;28;20726;-79
2023/10/29 11:21:38;;;;;;;4.45;1.70;;;13.90;99.90;;;;;;4999734;28;20300;-79
2023/10/29 11:24:22;;;;;;;2.58;1.23;;;13.90;99.90;;;;;;4996116;28;20221;-79
2023/10/29 11:26:48;;;;;;;1.02;0.75;;;14.00;99.90;;;;;;5001697;28;20264;-79
2023/10/29 11:29:42;;;;;;;1.42;0.90;;;14.00;99.90;;;;;;5001057;28;20289;-78
2023/10/29 11:32:26;;;;;;;3.05;1.50;;;14.10;99.90;;;;;;5016624;28;20205;-78
2023/10/29 11:35:14;;;;;;;1.98;0.70;;;14.10;99.90;;;;;;5000639;28;20208;-78
2023/10/29 11:37:40;;;;;;;3.45;1.13;;;14.20;99.90;;;;;;5007290;28;20233;-79
2023/10/29 11:40:25;;;;;;;2.17;1.13;;;14.20;99.90;;;;;;5005070;28;20225;-79
2023/10/29 11:42:51;;;;;;;3.03;1.40;;;14.30;99.90;;;;;;5003262;28;20301;-76
2023/10/29 11:45:34;;;;;;;4.72;2.25;;;14.30;99.90;;;;;;4996287;28;20213;-78
2023/10/29 11:48:06;;;;;;;1.88;1.35;;;14.30;99.90;;;;;;4997885;28;20178;-80
2023/10/29 11:50:33;;;;;;;1.98;1.10;;;14.30;99.90;;;;;;5002493;28;20212;-79
2023/10/29 11:52:59;;;;;;;2.70;1.00;;;14.30;99.90;;;;;;5001494;28;20387;-78
2023/10/29 11:55:28;;;;;;;1.40;0.60;;;14.40;99.90;;;;;;5002059;28;20284;-80
2023/10/29 11:57:54;;;;;;;1.73;1.00;;;14.40;99.90;;;;;;4999510;28;20201;-78
2023/10/29 12:00:23;;;;;;;2.50;1.65;;;14.40;99.90;;;;;;5002633;28;20211;-78
2023/10/29 12:02:49;;;;;;;2.80;1.13;;;14.40;99.90;;;;;;4999463;28;20226;-79
2023/10/29 12:05:15;;;;;;;2.25;0.70;;;14.40;99.90;;;;;;4987421;28;20251;-78
2023/10/29 12:07:41;;;;;;;1.98;0.68;;;14.50;99.90;;;;;;4995718;28;20224;-79
2023/10/29 12:10:08;;;;;;;1.63;0.88;;;14.40;99.90;;;;;;4990509;28;20202;-78
2023/10/29 12:12:34;;;;;;;2.70;0.93;;;14.40;99.90;;;;;;4990846;28;20316;-79
2023/10/29 12:15:00;;;;;;;1.13;0.73;;;14.50;99.90;;;;;;4999227;28;20193;-79
2023/10/29 12:17:29;;;;;;;2.10;0.80;;;14.60;99.90;;;;;;4999568;28;20680;-78
2023/10/29 12:19:55;;;;;;;1.65;0.77;;;14.70;99.90;;;;;;4997866;28;20622;-78
2023/10/29 12:22:30;;;;;;;3.55;1.20;;;14.80;99.90;;;;;;4998700;28;20258;-78
2023/10/29 12:25:00;;;;;;;3.88;1.00;;;14.90;99.90;;;;;;4999292;28;20288;-79
2023/10/29 12:27:27;;;;;;;3.15;0.77;;;14.90;99.90;;;;;;4996803;28;20212;-78
2023/10/29 12:29:53;;;;;;;3.10;0.80;;;14.90;99.90;;;;;;4995590;28;20211;-77
2023/10/29 12:32:22;;;;;;;1.85;1.10;;;14.90;99.90;;;;;;5001666;28;20178;-78
2023/10/29 12:34:57;;;;;;;1.63;0.93;;;14.90;99.90;;;;;;4995076;28;20289;-78
2023/10/29 12:37:23;;;;;;;2.58;0.80;;;14.90;99.90;;;;;;4996575;28;20208;-78
2023/10/29 12:39:51;;;;;;;1.20;0.60;;;14.90;99.90;;;;;;4998699;28;20223;-79
2023/10/29 12:42:18;;;;;;;1.15;0.60;;;14.90;99.90;;;;;;4993578;28;20259;-79
2023/10/29 12:44:54;;;;;;;4.65;1.33;;;14.90;99.90;;;;;;5002761;28;20178;-79
2023/10/29 12:47:20;;;;;;;2.25;1.08;;;14.90;99.90;;;;;;4995834;28;20242;-79